Time;durP1;ratioP1;P1;durP2;ratioP2;P2;SDS_P1;SDS_P2;PMS_P1;PMS_P2;Temp;Humidity;BMP_temperature;BMP_pressure;BME280_temperature;BME280_humidity;BME280_pressure;Samples;Min_cycle;Max_cycle;Signal;HPM_P1;HPM_P2
2023/11/04 00:02:04;;;;;;;8.82;4.97;;;12.90;65.60;;;;;;6057349;29;20319;-70
2023/11/04 00:05:08;;;;;;;12.30;4.13;;;12.90;65.80;;;;;;6055137;29;20482;-71
2023/11/04 00:08:09;;;;;;;7.70;2.95;;;12.80;65.90;;;;;;6050754;29;20025;-72
2023/11/04 00:11:10;;;;;;;6.13;2.88;;;12.80;66.10;;;;;;6048755;29;20559;-72
2023/11/04 00:14:11;;;;;;;10.32;3.00;;;12.90;66.20;;;;;;6050593;29;20670;-71
2023/11/04 00:17:13;;;;;;;9.32;2.47;;;12.80;66.00;;;;;;6049157;29;20032;-72
2023/11/04 00:20:14;;;;;;;5.60;2.90;;;12.90;65.90;;;;;;6057769;29;20086;-71
2023/11/04 00:23:15;;;;;;;9.15;2.80;;;12.90;65.80;;;;;;6026159;29;20037;-70
2023/11/04 00:26:15;;;;;;;5.90;2.60;;;12.90;65.60;;;;;;6027513;29;20478;-71
2023/11/04 00:29:25;;;;;;;5.75;2.15;;;13.00;65.60;;;;;;6028222;29;20041;-69
2023/11/04 00:32:25;;;;;;;7.07;1.95;;;13.00;65.60;;;;;;6045477;29;20077;-70
2023/11/04 00:35:26;;;;;;;5.72;2.33;;;13.00;65.40;;;;;;6052982;29;20052;-71
2023/11/04 00:38:27;;;;;;;5.38;2.17;;;13.00;65.40;;;;;;6049098;29;20387;-71
2023/11/04 00:41:30;;;;;;;2.85;2.08;;;13.00;65.30;;;;;;6048954;29;20127;-71
2023/11/04 00:44:31;;;;;;;4.25;1.95;;;13.00;65.30;;;;;;6047481;29;20052;-71
2023/11/04 00:47:32;;;;;;;5.78;1.98;;;13.00;65.20;;;;;;6049815;29;20434;-71
2023/11/04 00:50:33;;;;;;;5.03;2.08;;;13.00;65.20;;;;;;6051587;29;20161;-71
2023/11/04 00:53:34;;;;;;;4.63;2.17;;;12.90;65.10;;;;;;6052471;29;20743;-72
2023/11/04 00:56:35;;;;;;;2.33;1.05;;;12.90;64.90;;;;;;6052732;29;20089;-70
2023/11/04 00:59:36;;;;;;;3.88;2.13;;;12.90;64.90;;;;;;6052492;29;20033;-73
2023/11/04 01:02:37;;;;;;;3.72;2.03;;;12.80;64.80;;;;;;6020055;29;20352;-74
2023/11/04 01:05:38;;;;;;;4.82;1.65;;;12.90;64.50;;;;;;6066822;29;20085;-73
2023/11/04 01:08:39;;;;;;;2.88;1.35;;;12.90;64.40;;;;;;6044853;29;20113;-72
2023/11/04 01:11:44;;;;;;;4.68;1.92;;;12.80;64.30;;;;;;6036259;29;20044;-71
2023/11/04 01:14:45;;;;;;;5.72;2.67;;;12.80;64.30;;;;;;6049659;29;20104;-71
2023/11/04 01:17:46;;;;;;;4.63;2.20;;;12.90;64.50;;;;;;6051791;29;20116;-70
2023/11/04 01:20:52;;;;;;;4.40;1.92;;;12.90;64.50;;;;;;6039485;29;20122;-71
2023/11/04 01:23:54;;;;;;;10.48;2.55;;;12.90;64.50;;;;;;6043715;29;20124;-71
2023/11/04 01:26:55;;;;;;;5.25;2.03;;;12.90;64.60;;;;;;6028243;29;20084;-70
2023/11/04 01:29:56;;;;;;;9.65;1.60;;;12.90;64.80;;;;;;6028613;29;20482;-71
2023/11/04 01:32:58;;;;;;;3.17;1.70;;;12.90;64.90;;;;;;6045680;29;20104;-72
2023/11/04 01:35:59;;;;;;;5.70;2.10;;;12.80;64.90;;;;;;6049416;29;20033;-71
2023/11/04 01:38:59;;;;;;;4.10;2.08;;;12.80;65.00;;;;;;6049876;29;20475;-71
2023/11/04 01:42:05;;;;;;;5.45;2.20;;;12.80;65.00;;;;;;6048855;29;20037;-70
2023/11/04 01:45:09;;;;;;;2.78;1.73;;;12.80;65.00;;;;;;6051071;29;20052;-71
2023/11/04 01:48:10;;;;;;;2.78;1.48;;;12.80;65.00;;;;;;6049781;29;20033;-71
2023/11/04 01:51:12;;;;;;;5.80;1.98;;;12.70;64.90;;;;;;6049859;29;20037;-70
2023/11/04 01:54:15;;;;;;;5.70;2.45;;;12.70;65.00;;;;;;6048165;29;20033;-69
2023/11/04 01:57:18;;;;;;;4.07;1.92;;;12.60;65.00;;;;;;6048070;29;20080;-71
2023/11/04 02:00:20;;;;;;;3.70;1.95;;;12.60;65.20;;;;;;6048493;29;20219;-70
2023/11/04 02:03:21;;;;;;;6.65;1.98;;;12.60;65.20;;;;;;6049907;29;20112;-70
2023/11/04 02:06:22;;;;;;;5.85;2.75;;;12.50;65.30;;;;;;6056063;29;20041;-70
2023/11/04 02:09:22;;;;;;;3.75;1.70;;;12.40;65.30;;;;;;6042148;29;20047;-72
2023/11/04 02:12:25;;;;;;;2.85;1.58;;;12.40;65.50;;;;;;6040155;29;20055;-71
2023/11/04 02:15:26;;;;;;;2.90;1.23;;;12.30;65.70;;;;;;6049764;29;20105;-70
2023/11/04 02:18:27;;;;;;;2.88;1.40;;;12.30;65.70;;;;;;6052117;29;20557;-71
2023/11/04 02:21:28;;;;;;;1.90;1.02;;;12.30;65.70;;;;;;6051753;29;20446;-71
2023/11/04 02:24:29;;;;;;;3.85;1.52;;;12.20;65.60;;;;;;6068135;29;20059;-71
2023/11/04 02:27:30;;;;;;;3.08;1.70;;;12.20;65.40;;;;;;6068190;29;20446;-71
2023/11/04 02:30:32;;;;;;;3.28;1.83;;;12.20;66.30;;;;;;6051592;29;20093;-72
2023/11/04 02:33:32;;;;;;;2.72;1.50;;;12.10;65.50;;;;;;6051870;29;20061;-70
2023/11/04 02:36:35;;;;;;;2.42;1.10;;;12.10;65.70;;;;;;6051921;29;20442;-71
2023/11/04 02:39:36;;;;;;;2.40;0.95;;;12.10;65.40;;;;;;6051861;29;20041;-73
2023/11/04 02:42:38;;;;;;;4.25;1.23;;;12.10;65.40;;;;;;6054502;29;20044;-72
2023/11/04 02:45:39;;;;;;;2.03;1.13;;;12.10;65.40;;;;;;6067162;29;20121;-71
2023/11/04 02:48:39;;;;;;;4.72;1.40;;;12.10;65.40;;;;;;6053159;29;20494;-72
2023/11/04 02:51:40;;;;;;;2.22;1.10;;;12.20;65.30;;;;;;6051570;29;20033;-72
2023/11/04 02:54:41;;;;;;;3.78;1.42;;;12.10;65.10;;;;;;6053929;29;20040;-71
2023/11/04 02:57:42;;;;;;;2.28;1.17;;;12.10;65.20;;;;;;6052504;29;20040;-71
2023/11/04 03:00:43;;;;;;;2.97;1.50;;;12.20;65.20;;;;;;6050455;29;20550;-72
2023/11/04 03:03:44;;;;;;;1.05;0.82;;;12.20;65.00;;;;;;6050671;29;20336;-72
2023/11/04 03:06:45;;;;;;;1.60;1.20;;;12.20;64.90;;;;;;6050378;29;20250;-72
2023/11/04 03:09:46;;;;;;;2.33;1.25;;;12.20;64.90;;;;;;6049848;29;20033;-70
2023/11/04 03:12:47;;;;;;;2.35;1.20;;;12.20;64.90;;;;;;6051493;29;20104;-72
2023/11/04 03:15:48;;;;;;;2.72;1.30;;;12.30;64.90;;;;;;6050435;29;20439;-70
2023/11/04 03:18:49;;;;;;;2.63;1.00;;;12.30;64.80;;;;;;6051321;29;20112;-70
2023/11/04 03:21:50;;;;;;;3.63;1.50;;;12.30;64.60;;;;;;6031048;29;20405;-73
2023/11/04 03:24:51;;;;;;;3.47;1.50;;;12.30;64.60;;;;;;6027522;29;20041;-70
2023/11/04 03:27:52;;;;;;;2.22;1.40;;;12.30;64.60;;;;;;6027750;29;20383;-70
2023/11/04 03:30:53;;;;;;;2.95;1.17;;;12.30;64.50;;;;;;6049755;29;20037;-71
2023/11/04 03:33:54;;;;;;;2.03;1.10;;;12.30;64.60;;;;;;6049806;29;20104;-71
2023/11/04 03:36:55;;;;;;;1.55;1.15;;;12.30;64.60;;;;;;6049841;29;20033;-71
2023/11/04 03:39:57;;;;;;;3.00;1.42;;;12.30;64.70;;;;;;6050430;29;20124;-70
2023/11/04 03:42:59;;;;;;;2.53;1.38;;;12.30;64.60;;;;;;6051100;29;20037;-73
2023/11/04 03:46:00;;;;;;;3.28;1.63;;;12.20;64.50;;;;;;6051177;29;20727;-73
2023/11/04 03:49:01;;;;;;;3.53;1.60;;;12.20;64.50;;;;;;6049160;29;20490;-72
2023/11/04 03:52:02;;;;;;;4.53;1.70;;;12.10;64.60;;;;;;6049453;29;20681;-71
2023/11/04 03:55:02;;;;;;;4.70;1.77;;;12.10;64.70;;;;;;6051155;29;20135;-70
2023/11/04 03:58:03;;;;;;;3.20;1.65;;;12.10;64.80;;;;;;6050374;29;20486;-70
2023/11/04 04:01:05;;;;;;;7.35;1.92;;;12.00;64.90;;;;;;6052910;29;20081;-70
2023/11/04 04:04:06;;;;;;;6.40;1.83;;;11.90;65.00;;;;;;6062935;29;20049;-73
2023/11/04 04:07:07;;;;;;;6.47;1.88;;;11.90;65.20;;;;;;6049893;29;20146;-70
2023/11/04 04:10:09;;;;;;;7.68;2.20;;;11.90;65.20;;;;;;6048892;29;20036;-70
2023/11/04 04:13:10;;;;;;;3.05;1.70;;;11.80;65.40;;;;;;6048947;29;20029;-70
2023/11/04 04:16:12;;;;;;;2.05;1.50;;;11.80;65.50;;;;;;6050696;29;20079;-71
2023/11/04 04:19:13;;;;;;;2.13;1.40;;;11.80;65.50;;;;;;6064372;29;20029;-72
2023/11/04 04:22:14;;;;;;;2.70;1.58;;;11.80;65.50;;;;;;6026876;29;20451;-71
2023/11/04 04:25:15;;;;;;;3.70;2.10;;;11.80;65.50;;;;;;6036130;29;20115;-72
2023/11/04 04:28:16;;;;;;;2.50;1.63;;;11.80;65.60;;;;;;6050667;29;20142;-71
2023/11/04 04:31:17;;;;;;;2.63;1.17;;;11.80;65.50;;;;;;6051100;29;20025;-71
2023/11/04 04:34:18;;;;;;;3.10;1.60;;;11.70;65.60;;;;;;6048547;29;20145;-73
2023/11/04 04:37:19;;;;;;;3.25;1.90;;;11.70;66.50;;;;;;6049680;29;20116;-71
2023/11/04 04:40:20;;;;;;;4.30;1.83;;;11.70;65.60;;;;;;6047883;29;20140;-72
2023/11/04 04:43:21;;;;;;;2.13;1.13;;;11.70;65.70;;;;;;6049600;29;20478;-71
2023/11/04 04:46:21;;;;;;;4.22;1.65;;;11.60;65.60;;;;;;6049590;29;20043;-71
2023/11/04 04:49:22;;;;;;;3.22;1.65;;;11.50;65.60;;;;;;6049175;29;20033;-69
2023/11/04 04:52:23;;;;;;;2.78;1.45;;;11.50;65.80;;;;;;6049515;29;20435;-70
2023/11/04 04:55:24;;;;;;;2.28;1.70;;;11.40;65.90;;;;;;6049683;29;20045;-69
2023/11/04 04:58:24;;;;;;;7.55;1.60;;;11.40;66.00;;;;;;6049289;29;20040;-71
2023/11/04 05:01:25;;;;;;;4.43;1.45;;;11.40;66.10;;;;;;6047829;29;20033;-72
2023/11/04 05:04:26;;;;;;;3.05;1.80;;;11.40;66.20;;;;;;6032344;29;20397;-70
2023/11/04 05:07:28;;;;;;;3.67;2.17;;;11.40;66.20;;;;;;6047580;29;20044;-72
2023/11/04 05:10:29;;;;;;;2.08;1.30;;;11.50;66.30;;;;;;6048667;29;20033;-69
2023/11/04 05:13:30;;;;;;;4.55;2.20;;;11.50;66.00;;;;;;6047905;29;20033;-72
2023/11/04 05:16:31;;;;;;;3.33;1.35;;;11.50;66.00;;;;;;6047728;29;20046;-72
2023/11/04 05:19:32;;;;;;;3.30;1.83;;;11.50;66.00;;;;;;6046645;29;20037;-71
2023/11/04 05:22:32;;;;;;;4.32;1.45;;;11.50;66.10;;;;;;6044144;29;20040;-70
2023/11/04 05:25:33;;;;;;;4.97;1.70;;;11.40;66.10;;;;;;6049293;29;20056;-71
2023/11/04 05:28:34;;;;;;;3.08;1.95;;;11.40;66.10;;;;;;6036488;29;20034;-71
2023/11/04 05:31:36;;;;;;;5.50;2.38;;;11.40;66.30;;;;;;6034670;29;20418;-71
2023/11/04 05:34:36;;;;;;;1.58;1.38;;;11.40;66.40;;;;;;6048935;29;20049;-70
2023/11/04 05:37:37;;;;;;;3.85;1.73;;;11.40;66.30;;;;;;6048704;29;20037;-72
2023/11/04 05:40:38;;;;;;;3.78;1.98;;;11.40;66.30;;;;;;6031815;29;20074;-70
2023/11/04 05:43:39;;;;;;;3.33;1.88;;;11.40;66.50;;;;;;6048831;29;20703;-72
2023/11/04 05:46:40;;;;;;;4.10;1.50;;;11.50;66.30;;;;;;6031800;29;20037;-71
2023/11/04 05:49:41;;;;;;;2.30;1.75;;;11.50;66.10;;;;;;6062488;29;20467;-71
2023/11/04 05:52:43;;;;;;;2.95;2.00;;;11.50;66.00;;;;;;6052162;29;20029;-70
2023/11/04 05:55:44;;;;;;;4.40;1.92;;;11.50;66.00;;;;;;6053799;29;20052;-72
2023/11/04 05:58:46;;;;;;;3.10;1.92;;;11.50;66.00;;;;;;6053208;29;20037;-72
2023/11/04 06:01:47;;;;;;;2.78;2.35;;;11.60;66.10;;;;;;6054221;29;20033;-73
2023/11/04 06:04:47;;;;;;;6.22;2.30;;;11.60;66.00;;;;;;6061658;29;20576;-69
2023/11/04 06:07:48;;;;;;;4.40;2.20;;;11.60;65.90;;;;;;6059962;29;20585;-73
2023/11/04 06:10:49;;;;;;;3.63;1.58;;;11.60;65.90;;;;;;6054933;29;20120;-70
2023/11/04 06:13:53;;;;;;;4.10;1.60;;;11.50;65.80;;;;;;6052948;29;20140;-72
2023/11/04 06:16:53;;;;;;;6.90;2.33;;;11.40;65.80;;;;;;6051504;29;20017;-72
2023/11/04 06:19:55;;;;;;;3.88;1.80;;;11.40;66.00;;;;;;6052755;29;20409;-71
2023/11/04 06:22:56;;;;;;;8.40;1.45;;;11.40;66.10;;;;;;6052840;29;20058;-72
2023/11/04 06:25:57;;;;;;;4.72;1.67;;;11.40;66.20;;;;;;6066692;29;20033;-72
2023/11/04 06:28:57;;;;;;;2.63;1.60;;;11.40;66.20;;;;;;6035428;29;20495;-72
2023/11/04 06:31:58;;;;;;;9.40;2.25;;;11.40;66.20;;;;;;6052488;29;20055;-70
2023/11/04 06:35:00;;;;;;;6.10;2.90;;;11.40;66.10;;;;;;6052454;29;20041;-71
2023/11/04 06:38:01;;;;;;;5.75;2.35;;;11.50;66.20;;;;;;6052242;29;20032;-72
2023/11/04 06:41:04;;;;;;;4.85;2.53;;;11.50;66.20;;;;;;6051354;29;20576;-71
2023/11/04 06:44:05;;;;;;;3.72;2.63;;;11.50;66.20;;;;;;6032986;29;20058;-71
2023/11/04 06:47:06;;;;;;;5.60;2.65;;;11.50;66.30;;;;;;6011552;29;20044;-72
2023/11/04 06:50:08;;;;;;;3.85;2.42;;;11.50;66.20;;;;;;6026601;29;20527;-71
2023/11/04 06:53:09;;;;;;;13.13;2.30;;;11.50;66.90;;;;;;6042879;29;20731;-71
2023/11/04 06:56:10;;;;;;;4.50;1.95;;;11.50;66.00;;;;;;6027145;29;20439;-71
2023/11/04 06:59:11;;;;;;;2.92;1.88;;;11.50;66.20;;;;;;6028450;29;20025;-71
2023/11/04 07:02:12;;;;;;;2.75;1.38;;;11.60;66.10;;;;;;6028886;29;20045;-70
2023/11/04 07:05:13;;;;;;;3.53;2.22;;;11.60;65.80;;;;;;6051507;29;20033;-71
2023/11/04 07:08:14;;;;;;;2.65;1.30;;;11.50;65.70;;;;;;6051030;29;20051;-71
2023/11/04 07:11:22;;;;;;;2.88;1.38;;;11.60;65.70;;;;;;6049057;29;20442;-72
2023/11/04 07:14:24;;;;;;;2.17;0.90;;;11.60;65.40;;;;;;6044366;29;20040;-72
2023/11/04 07:17:25;;;;;;;0.35;0.35;;;11.70;65.40;;;;;;6049161;29;20144;-71
2023/11/04 07:20:25;;;;;;;0.45;0.40;;;11.80;64.50;;;;;;6048935;29;20158;-70
2023/11/04 07:23:27;;;;;;;1.90;1.05;;;11.90;63.80;;;;;;6051268;29;20800;-70
2023/11/04 07:26:29;;;;;;;1.45;0.70;;;12.20;62.60;;;;;;6052890;29;20343;-71
2023/11/04 07:29:30;;;;;;;0.93;0.50;;;12.30;61.60;;;;;;6059533;29;20092;-72
2023/11/04 07:32:31;;;;;;;1.60;0.98;;;12.50;60.60;;;;;;6051311;29;20502;-71
2023/11/04 07:35:32;;;;;;;1.08;0.90;;;12.60;59.20;;;;;;6051784;29;20049;-72
2023/11/04 07:38:34;;;;;;;2.00;1.20;;;12.80;58.60;;;;;;6064910;29;20049;-71
2023/11/04 07:41:40;;;;;;;1.63;1.10;;;12.80;58.30;;;;;;6064838;29;20047;-71
2023/11/04 07:44:41;;;;;;;3.22;1.40;;;12.90;58.50;;;;;;6044654;29;20049;-70
2023/11/04 07:47:45;;;;;;;1.10;0.80;;;12.90;58.70;;;;;;6028807;29;20427;-71
2023/11/04 07:50:46;;;;;;;1.40;0.80;;;12.90;58.60;;;;;;6027184;29;20037;-71
2023/11/04 07:53:47;;;;;;;0.88;0.50;;;12.90;58.10;;;;;;6027575;29;20104;-71
2023/11/04 07:56:48;;;;;;;1.08;0.80;;;13.10;57.30;;;;;;6041499;29;20030;-71
2023/11/04 07:59:50;;;;;;;1.80;0.68;;;13.00;57.00;;;;;;6027268;29;20098;-71
2023/11/04 08:02:51;;;;;;;2.28;0.40;;;13.10;56.20;;;;;;6032956;29;20070;-71
2023/11/04 08:05:52;;;;;;;0.10;0.00;;;13.20;55.70;;;;;;6032988;29;20080;-72
2023/11/04 08:08:53;;;;;;;0.28;0.10;;;13.30;55.30;;;;;;6049647;29;20037;-73
2023/11/04 08:11:53;;;;;;;0.10;0.10;;;13.40;54.50;;;;;;6049447;29;20044;-71
2023/11/04 08:14:54;;;;;;;0.55;0.22;;;13.60;54.60;;;;;;6049465;29;20490;-71
2023/11/04 08:17:57;;;;;;;0.15;0.10;;;13.70;54.10;;;;;;6049697;29;20469;-70
2023/11/04 08:20:58;;;;;;;0.65;0.30;;;13.80;54.00;;;;;;6063896;29;20128;-71
2023/11/04 08:23:59;;;;;;;0.28;0.20;;;13.90;54.00;;;;;;6050129;29;20435;-71
2023/11/04 08:27:01;;;;;;;0.45;0.40;;;14.00;53.90;;;;;;6050028;29;20112;-71
2023/11/04 08:30:04;;;;;;;0.70;0.47;;;14.00;53.60;;;;;;6047933;29;20462;-70
2023/11/04 08:33:05;;;;;;;0.40;0.25;;;14.10;53.50;;;;;;6048131;29;20041;-71
2023/11/04 08:36:07;;;;;;;3.08;0.90;;;14.20;53.80;;;;;;6049593;29;20049;-69
2023/11/04 08:39:09;;;;;;;0.88;0.30;;;14.30;53.80;;;;;;6047915;29;20041;-71
2023/11/04 08:42:11;;;;;;;0.90;0.43;;;14.40;53.50;;;;;;6046408;29;20018;-71
2023/11/04 08:45:13;;;;;;;0.57;0.30;;;14.40;52.80;;;;;;6025169;29;20041;-70
2023/11/04 08:48:14;;;;;;;1.58;0.30;;;14.50;52.80;;;;;;6041401;29;20184;-72
2023/11/04 08:51:15;;;;;;;0.10;0.10;;;14.50;52.40;;;;;;6026783;29;20450;-74
2023/11/04 08:54:17;;;;;;;0.60;0.20;;;14.60;51.80;;;;;;6025309;29;20044;-71
2023/11/04 08:57:18;;;;;;;0.32;0.32;;;14.70;51.50;;;;;;6026633;29;20435;-72
2023/11/04 09:00:19;;;;;;;0.20;0.20;;;14.70;51.40;;;;;;6025981;29;20026;-71
2023/11/04 09:03:20;;;;;;;0.25;0.22;;;14.80;51.30;;;;;;6050615;29;20100;-70
2023/11/04 09:06:24;;;;;;;0.10;0.10;;;14.90;51.00;;;;;;6048994;29;20064;-72
2023/11/04 09:09:25;;;;;;;0.03;0.03;;;15.00;50.80;;;;;;6062490;29;20505;-73
2023/11/04 09:12:26;;;;;;;0.10;0.10;;;15.00;49.70;;;;;;6063531;29;20029;-70
2023/11/04 09:15:27;;;;;;;0.20;0.20;;;15.10;48.80;;;;;;6048317;29;20068;-70
2023/11/04 09:18:28;;;;;;;0.20;0.10;;;15.10;48.40;;;;;;6049099;29;20061;-71
2023/11/04 09:21:29;;;;;;;0.10;0.10;;;15.10;48.00;;;;;;6048433;29;20052;-72
2023/11/04 09:24:30;;;;;;;2.45;0.03;;;15.10;48.60;;;;;;6048836;29;20037;-71
2023/11/04 09:27:31;;;;;;;0.03;0.00;;;15.10;48.70;;;;;;6048888;29;20135;-71
2023/11/04 09:30:33;;;;;;;1.75;0.43;;;15.10;48.60;;;;;;6061776;29;20060;-73
2023/11/04 09:33:35;;;;;;;3.20;0.25;;;15.00;48.90;;;;;;6025904;29;20170;-71
2023/11/04 09:36:36;;;;;;;0.13;0.13;;;14.90;49.40;;;;;;6024486;29;20033;-72
2023/11/04 09:39:37;;;;;;;0.85;0.20;;;14.90;49.80;;;;;;6024114;29;20038;-73
2023/11/04 09:42:41;;;;;;;0.40;0.25;;;14.80;50.30;;;;;;6031118;29;20336;-73
2023/11/04 09:45:44;;;;;;;0.75;0.20;;;14.90;50.70;;;;;;6049125;29;20170;-73
2023/11/04 09:48:49;;;;;;;2.20;0.08;;;14.90;50.70;;;;;;6034657;29;20048;-73
2023/11/04 09:51:54;;;;;;;0.15;0.10;;;14.90;50.80;;;;;;6047709;29;20044;-72
2023/11/04 09:54:59;;;;;;;0.10;0.10;;;14.90;50.60;;;;;;6049160;29;20124;-72
2023/11/04 09:58:01;;;;;;;0.68;0.20;;;15.00;50.80;;;;;;6048785;29;20093;-73
2023/11/04 10:01:02;;;;;;;0.30;0.10;;;15.10;50.60;;;;;;6049289;29;20046;-72
2023/11/04 10:04:10;;;;;;;0.10;0.10;;;15.10;50.40;;;;;;6048934;29;20088;-74
2023/11/04 10:07:19;;;;;;;0.30;0.20;;;15.10;50.60;;;;;;6056987;29;20340;-73
2023/11/04 10:10:25;;;;;;;;;;;15.20;50.50;;;;;;6053339;29;20065;-72
2023/11/04 10:13:29;;;;;;;0.38;0.10;;;15.40;50.30;;;;;;6047879;29;19915;-73
2023/11/04 10:16:53;;;;;;;0.22;0.20;;;15.50;50.30;;;;;;6047581;29;20112;-73
2023/11/04 10:20:20;;;;;;;0.30;0.28;;;15.70;50.10;;;;;;6041875;29;20101;-72
2023/11/04 10:23:29;;;;;;;0.00;0.00;;;15.90;49.70;;;;;;6039784;29;20048;-71
2023/11/04 10:26:56;;;;;;;0.75;0.35;;;16.10;49.20;;;;;;6026317;29;20048;-72
2023/11/04 10:30:12;;;;;;;0.60;0.10;;;16.30;48.20;;;;;;6024307;29;20225;-72
2023/11/04 10:33:15;;;;;;;0.22;0.13;;;16.50;47.30;;;;;;6038234;29;20074;-74
2023/11/04 10:36:17;;;;;;;2.00;0.10;;;16.70;47.00;;;;;;6026311;29;20033;-74
2023/11/04 10:39:22;;;;;;;0.10;0.10;;;16.70;46.90;;;;;;6027872;29;20112;-72
2023/11/04 10:42:27;;;;;;;0.10;0.08;;;16.70;46.00;;;;;;6048032;29;20623;-72
2023/11/04 10:45:46;;;;;;;4.50;0.17;;;16.70;46.20;;;;;;6051143;29;20041;-72
2023/11/04 10:48:57;;;;;;;0.17;0.17;;;16.80;46.50;;;;;;6050768;29;20040;-74
2023/11/04 10:52:13;;;;;;;0.65;0.30;;;16.80;46.20;;;;;;6050456;29;20439;-71
2023/11/04 10:55:19;;;;;;;0.10;0.10;;;16.90;46.20;;;;;;6052991;29;20080;-73
2023/11/04 10:58:33;;;;;;;1.33;0.65;;;16.90;45.90;;;;;;6051515;29;20092;-74
2023/11/04 11:01:37;;;;;;;0.10;0.10;;;17.10;45.80;;;;;;6045376;29;20421;-73
2023/11/04 11:04:40;;;;;;;0.10;0.10;;;17.10;45.60;;;;;;6050845;29;20037;-71
2023/11/04 11:07:44;;;;;;;0.10;0.00;;;17.00;45.40;;;;;;6034891;29;20064;-74
2023/11/04 11:11:04;;;;;;;6.75;0.38;;;17.00;45.80;;;;;;6049980;29;20120;-72
2023/11/04 11:14:06;;;;;;;1.33;0.60;;;17.10;46.10;;;;;;6060092;29;20033;-74
2023/11/04 11:17:07;;;;;;;0.68;0.10;;;17.10;45.80;;;;;;6060072;29;20028;-75
2023/11/04 11:20:30;;;;;;;0.80;0.20;;;17.20;45.30;;;;;;6055138;29;20101;-74
2023/11/04 11:23:31;;;;;;;0.47;0.25;;;17.30;44.20;;;;;;6049582;29;20035;-73
2023/11/04 11:26:33;;;;;;;0.47;0.28;;;17.40;44.30;;;;;;6049765;29;20056;-73
2023/11/04 11:29:44;;;;;;;0.57;0.13;;;17.60;44.20;;;;;;6048893;29;20037;-75
2023/11/04 11:32:45;;;;;;;0.08;0.08;;;17.60;44.10;;;;;;6049647;29;20069;-74
2023/11/04 11:36:01;;;;;;;0.10;0.10;;;17.70;43.80;;;;;;6050319;29;20071;-72
2023/11/04 11:39:02;;;;;;;0.22;0.15;;;18.30;42.50;;;;;;6049680;29;20085;-72
2023/11/04 11:42:03;;;;;;;2.05;0.50;;;19.10;41.10;;;;;;6049581;29;20033;-72
2023/11/04 11:45:09;;;;;;;2.05;0.30;;;20.00;40.80;;;;;;6041655;29;20041;-72
2023/11/04 11:48:11;;;;;;;0.00;0.00;;;20.30;39.70;;;;;;6026695;29;20137;-70
2023/11/04 11:51:13;;;;;;;0.10;0.10;;;20.30;38.40;;;;;;6027857;29;20121;-73
2023/11/04 11:54:15;;;;;;;0.50;0.25;;;20.00;38.60;;;;;;6029078;29;20033;-72
2023/11/04 11:57:16;;;;;;;1.10;0.10;;;19.80;38.50;;;;;;6065057;29;20229;-73
2023/11/04 12:00:17;;;;;;;0.90;0.28;;;19.80;38.30;;;;;;6048714;29;20096;-74
2023/11/04 12:03:20;;;;;;;0.10;0.10;;;19.70;38.30;;;;;;6048329;29;20044;-73
2023/11/04 12:06:22;;;;;;;0.28;0.10;;;19.60;38.70;;;;;;6050070;29;20028;-74
2023/11/04 12:09:23;;;;;;;0.22;0.20;;;19.60;38.30;;;;;;6048613;29;20048;-71
2023/11/04 12:12:24;;;;;;;0.10;0.08;;;19.60;38.80;;;;;;6050122;29;20498;-72
2023/11/04 12:15:26;;;;;;;0.20;0.03;;;19.50;38.80;;;;;;6048533;29;20037;-71
2023/11/04 12:18:27;;;;;;;0.20;0.20;;;19.50;38.60;;;;;;6048712;29;20370;-73
2023/11/04 12:21:28;;;;;;;0.85;0.25;;;19.40;38.40;;;;;;6055644;29;20103;-72
2023/11/04 12:24:29;;;;;;;0.08;0.08;;;19.30;38.60;;;;;;6036430;29;20112;-71
2023/11/04 12:27:30;;;;;;;0.15;0.15;;;19.10;38.70;;;;;;6032143;29;20037;-73
2023/11/04 12:30:35;;;;;;;0.10;0.10;;;18.90;39.30;;;;;;6028159;29;20033;-71
2023/11/04 12:33:37;;;;;;;0.20;0.20;;;18.80;39.60;;;;;;6050512;29;20112;-71
2023/11/04 12:36:37;;;;;;;0.90;0.30;;;18.70;39.60;;;;;;6048508;29;20439;-71
2023/11/04 12:39:38;;;;;;;0.40;0.30;;;18.60;40.30;;;;;;6038948;29;20104;-72
2023/11/04 12:42:40;;;;;;;1.17;0.40;;;18.50;40.20;;;;;;6036915;29;20101;-73
2023/11/04 12:45:46;;;;;;;3.05;0.28;;;18.40;40.80;;;;;;6041133;29;20036;-71
2023/11/04 12:48:47;;;;;;;0.17;0.10;;;18.30;40.70;;;;;;6038030;29;20025;-73
2023/11/04 12:51:48;;;;;;;0.10;0.10;;;18.20;40.80;;;;;;6050027;29;20043;-73
2023/11/04 12:54:49;;;;;;;0.30;0.20;;;18.20;40.80;;;;;;6049272;29;20052;-72
2023/11/04 12:57:50;;;;;;;0.32;0.17;;;18.10;41.20;;;;;;6049844;29;20454;-72
2023/11/04 13:00:51;;;;;;;0.10;0.10;;;18.00;41.20;;;;;;6047767;29;20137;-72
2023/11/04 13:03:54;;;;;;;0.28;0.17;;;17.80;41.10;;;;;;6049587;29;20053;-74
2023/11/04 13:06:55;;;;;;;0.00;0.00;;;17.90;41.20;;;;;;6049179;29;20088;-73
2023/11/04 13:09:56;;;;;;;0.63;0.20;;;17.90;41.20;;;;;;6049039;29;20045;-72
2023/11/04 13:12:57;;;;;;;0.30;0.30;;;17.90;41.40;;;;;;6047873;29;20040;-73
2023/11/04 13:15:58;;;;;;;0.30;0.10;;;17.80;41.30;;;;;;6042564;29;20037;-73
2023/11/04 13:19:00;;;;;;;0.60;0.30;;;17.90;41.60;;;;;;6025877;29;20521;-71
2023/11/04 13:22:02;;;;;;;0.10;0.10;;;17.90;41.40;;;;;;6044703;29;20044;-72
2023/11/04 13:25:05;;;;;;;0.60;0.20;;;17.80;41.60;;;;;;6064572;29;20112;-74
2023/11/04 13:28:06;;;;;;;0.57;0.20;;;17.90;41.50;;;;;;6055793;29;20033;-71
2023/11/04 13:31:07;;;;;;;0.10;0.10;;;18.00;41.60;;;;;;6048519;29;20029;-73
2023/11/04 13:34:09;;;;;;;3.78;0.10;;;18.10;41.50;;;;;;6026361;29;20479;-74
2023/11/04 13:37:10;;;;;;;0.13;0.13;;;18.10;41.20;;;;;;6023847;29;20340;-71
2023/11/04 13:40:11;;;;;;;2.35;0.38;;;18.20;40.60;;;;;;6023976;29;20101;-73
2023/11/04 13:43:13;;;;;;;0.05;0.05;;;18.30;40.60;;;;;;6034825;29;20502;-73
2023/11/04 13:46:14;;;;;;;0.10;0.10;;;18.30;40.30;;;;;;6047534;29;20060;-73
2023/11/04 13:49:15;;;;;;;2.08;0.30;;;18.30;40.40;;;;;;6047661;29;20116;-72
2023/11/04 13:52:16;;;;;;;0.57;0.10;;;18.20;40.50;;;;;;6046642;29;20048;-72
2023/11/04 13:55:17;;;;;;;0.20;0.10;;;18.30;40.70;;;;;;6043831;29;20482;-72
2023/11/04 13:58:18;;;;;;;0.10;0.10;;;18.10;41.00;;;;;;6048554;29;20119;-73
2023/11/04 14:01:19;;;;;;;0.45;0.20;;;18.10;41.10;;;;;;6046933;29;20029;-71
2023/11/04 14:04:20;;;;;;;0.03;0.03;;;18.00;41.00;;;;;;6030362;29;20037;-72
2023/11/04 14:07:21;;;;;;;0.00;0.00;;;18.00;41.10;;;;;;6027424;29;20477;-72
2023/11/04 14:10:22;;;;;;;0.00;0.00;;;18.00;41.10;;;;;;6026318;29;20490;-74
2023/11/04 14:13:25;;;;;;;0.35;0.20;;;18.00;41.20;;;;;;6053222;29;20033;-73
2023/11/04 14:16:27;;;;;;;0.08;0.03;;;18.00;41.20;;;;;;6053700;29;20431;-71
2023/11/04 14:19:27;;;;;;;0.80;0.20;;;18.10;41.20;;;;;;6051126;29;20032;-73
2023/11/04 14:22:30;;;;;;;1.10;0.22;;;18.10;41.40;;;;;;6030043;29;20474;-71
2023/11/04 14:25:31;;;;;;;0.63;0.03;;;18.10;41.50;;;;;;6028013;29;20105;-71
2023/11/04 14:28:32;;;;;;;2.00;0.20;;;18.00;41.50;;;;;;6028451;29;20037;-73
2023/11/04 14:31:33;;;;;;;3.40;0.47;;;18.00;42.00;;;;;;6036564;29;20044;-72
2023/11/04 14:34:33;;;;;;;0.00;0.00;;;17.80;43.20;;;;;;6050993;29;20045;-74
2023/11/04 14:37:35;;;;;;;0.15;0.05;;;17.40;44.90;;;;;;6051220;29;20033;-73
2023/11/04 14:40:36;;;;;;;0.70;0.35;;;17.00;46.40;;;;;;6052436;29;20049;-73
2023/11/04 14:43:37;;;;;;;1.10;0.20;;;16.70;47.40;;;;;;6052286;29;20107;-74
2023/11/04 14:46:38;;;;;;;2.97;0.10;;;16.60;48.50;;;;;;6050970;29;20503;-70
2023/11/04 14:49:39;;;;;;;0.68;0.20;;;16.50;49.00;;;;;;6049006;29;20033;-73
2023/11/04 14:52:40;;;;;;;0.00;0.00;;;16.40;49.70;;;;;;6043624;29;20029;-72
2023/11/04 14:55:41;;;;;;;0.10;0.03;;;16.30;50.40;;;;;;6029792;29;20112;-73
2023/11/04 14:58:42;;;;;;;2.53;0.28;;;16.30;50.50;;;;;;6029626;29;20040;-72
2023/11/04 15:01:44;;;;;;;0.00;0.00;;;16.30;50.60;;;;;;6028105;29;20036;-73
2023/11/04 15:04:46;;;;;;;1.13;0.30;;;16.50;51.00;;;;;;6064791;29;20097;-73
2023/11/04 15:07:47;;;;;;;1.17;0.10;;;16.30;51.00;;;;;;6052307;29;20168;-72
2023/11/04 15:10:48;;;;;;;1.00;0.28;;;16.30;51.30;;;;;;6051809;29;20033;-74
2023/11/04 15:13:49;;;;;;;0.00;0.00;;;16.10;51.80;;;;;;6051999;29;20029;-71
2023/11/04 15:16:51;;;;;;;0.00;0.00;;;16.00;52.60;;;;;;6052048;29;20065;-71
2023/11/04 15:19:52;;;;;;;0.55;0.20;;;16.00;52.90;;;;;;6046240;29;20502;-74
2023/11/04 15:22:53;;;;;;;0.08;0.05;;;15.90;53.00;;;;;;6028838;29;20451;-72
2023/11/04 15:25:54;;;;;;;0.45;0.20;;;16.00;53.30;;;;;;6027189;29;20088;-72
2023/11/04 15:28:55;;;;;;;0.08;0.05;;;16.00;53.30;;;;;;6028945;29;20547;-72
2023/11/04 15:31:57;;;;;;;0.20;0.15;;;16.10;53.00;;;;;;6040762;29;20101;-72
2023/11/04 15:34:58;;;;;;;2.17;0.10;;;16.20;52.80;;;;;;6050046;29;20120;-72
2023/11/04 15:37:59;;;;;;;0.77;0.20;;;16.30;52.70;;;;;;6051120;29;20088;-72
2023/11/04 15:41:00;;;;;;;0.20;0.10;;;16.40;52.40;;;;;;6051763;29;20033;-71
2023/11/04 15:44:02;;;;;;;0.20;0.20;;;16.50;52.20;;;;;;6052427;29;20128;-70
2023/11/04 15:47:03;;;;;;;0.10;0.10;;;16.60;52.60;;;;;;6051951;29;20044;-73
2023/11/04 15:50:04;;;;;;;0.10;0.10;;;16.70;51.80;;;;;;6050967;29;20041;-72